Terminal Aerodrome Forecast
Issued by NWS

Home | Current Version | Previous Version | Text Only | Print | Product List | Glossary On
Versions: 1 2 3 4 5 6 7 8 9 10 11 12 13 14 15 16 17 18 19 20 21 22 23 24 25 26 27 28 29 30 31 32 33 34 35 36 37 38 39 40 41 42 43 44 45 46 47 48
270
FTUS41 KRNK 301441 AAA
TAFLWB
TAF AMD
KLWB 301441Z 3015/3112 12007KT P6SM OVC009
      TEMPO 3015/3017 OVC012
     FM301700 13008KT P6SM BKN020
     FM302200 13008KT P6SM BKN010
     FM310300 11007KT P6SM OVC007
     FM310600 11005KT 2SM SHRA OVC003=

USA.gov is the U.S. government's official web portal to all federal, state and local government web resources and services.